Time,TemperatureF,DewpointF,PressureIn,WindDirection,WindDirectionDegrees,WindSpeedMPH,WindSpeedGustMPH,Humidity,HourlyPrecipIn,Conditions,Clouds,dailyrainin,SoftwareType,DateUTC
2013-01-07 00:13:00,30.6,27.0,30.00,NW,312,3.0,4.0,86,0.00,,,0.00,weatherlink.com 1.10,2013-01-07 05:13:00,
2013-01-07 00:28:00,30.7,27.0,30.00,WNW,298,2.0,4.0,85,0.00,,,0.00,weatherlink.com 1.10,2013-01-07 05:28:00,
2013-01-07 00:43:00,31.0,27.0,30.00,WNW,298,2.0,5.0,84,0.00,,,0.00,weatherlink.com 1.10,2013-01-07 05:43:00,
2013-01-07 00:58:00,30.9,27.0,30.01,WNW,287,2.0,4.0,84,0.00,,,0.00,weatherlink.com 1.10,2013-01-07 05:58:00,
2013-01-07 01:13:00,31.1,27.0,30.01,NW,324,0.0,3.0,83,0.00,,,0.00,weatherlink.com 1.10,2013-01-07 06:13:00,
2013-01-07 01:28:00,31.3,26.0,30.02,NW,323,3.0,4.0,82,0.00,,,0.00,weatherlink.com 1.10,2013-01-07 06:28:00,
2013-01-07 01:43:00,31.3,26.0,30.02,WNW,294,1.0,6.0,82,0.00,,,0.00,weatherlink.com 1.10,2013-01-07 06:43:00,
2013-01-07 01:58:00,31.2,26.0,30.02,NW,304,0.0,4.0,82,0.00,,,0.00,weatherlink.com 1.10,2013-01-07 06:58:00,
2013-01-07 02:13:00,30.6,26.0,30.03,NW,311,3.0,4.0,83,0.00,,,0.00,weatherlink.com 1.10,2013-01-07 07:13:00,
2013-01-07 02:28:00,30.0,26.0,30.04,WNW,293,1.0,3.0,84,0.00,,,0.00,weatherlink.com 1.10,2013-01-07 07:28:00,
2013-01-07 02:43:00,29.7,26.0,30.04,NW,306,1.0,3.0,85,0.00,,,0.00,weatherlink.com 1.10,2013-01-07 07:43:00,
2013-01-07 02:58:00,29.4,26.0,30.04,NW,306,0.0,1.0,85,0.00,,,0.00,weatherlink.com 1.10,2013-01-07 07:58:00,
2013-01-07 03:13:00,28.8,25.0,30.04,NNW,340,1.0,2.0,86,0.00,,,0.00,weatherlink.com 1.10,2013-01-07 08:13:00,
2013-01-07 03:28:00,29.3,25.0,30.04,NW,311,0.0,2.0,85,0.00,,,0.00,weatherlink.com 1.10,2013-01-07 08:28:00,
2013-01-07 03:43:00,29.2,25.0,30.04,NW,320,2.0,5.0,85,0.00,,,0.00,weatherlink.com 1.10,2013-01-07 08:43:00,
2013-01-07 03:58:00,29.1,25.0,30.04,NW,304,0.0,1.0,86,0.00,,,0.00,weatherlink.com 1.10,2013-01-07 08:58:00,
2013-01-07 04:13:00,29.7,26.0,30.05,NW,304,1.0,3.0,85,0.00,,,0.00,weatherlink.com 1.10,2013-01-07 09:13:00,
2013-01-07 04:28:00,30.0,26.0,30.05,NNW,336,1.0,4.0,84,0.00,,,0.00,weatherlink.com 1.10,2013-01-07 09:28:00,
2013-01-07 04:44:00,29.9,26.0,30.05,WNW,298,1.0,2.0,84,0.00,,,0.00,weatherlink.com 1.10,2013-01-07 09:44:00,
2013-01-07 04:59:00,30.0,26.0,30.06,WNW,282,2.0,3.0,84,0.00,,,0.00,weatherlink.com 1.10,2013-01-07 09:59:00,
2013-01-07 05:18:00,29.9,26.0,30.07,NNW,346,1.0,4.0,84,0.00,,,0.00,weatherlink.com 1.10,2013-01-07 10:18:00,
2013-01-07 05:29:00,30.0,26.0,30.08,NW,309,0.0,4.0,84,0.00,,,0.00,weatherlink.com 1.10,2013-01-07 10:29:00,
2013-01-07 05:44:00,30.2,26.0,30.08,NW,304,1.0,4.0,84,0.00,,,0.00,weatherlink.com 1.10,2013-01-07 10:44:00,
2013-01-07 05:59:00,30.2,26.0,30.09,NW,326,2.0,3.0,85,0.00,,,0.00,weatherlink.com 1.10,2013-01-07 10:59:00,
2013-01-07 06:14:00,30.4,26.0,30.10,North,356,0.0,3.0,84,0.00,,,0.00,weatherlink.com 1.10,2013-01-07 11:14:00,
2013-01-07 06:29:00,30.7,26.0,30.11,West,275,1.0,3.0,84,0.00,,,0.00,weatherlink.com 1.10,2013-01-07 11:29:00,
2013-01-07 06:44:00,31.0,27.0,30.12,WNW,283,2.0,5.0,84,0.00,,,0.00,weatherlink.com 1.10,2013-01-07 11:44:00,
2013-01-07 06:59:00,31.1,27.0,30.13,NW,315,3.0,6.0,84,0.00,,,0.00,weatherlink.com 1.10,2013-01-07 11:59:00,
2013-01-07 07:14:00,31.3,27.0,30.14,NW,311,2.0,3.0,83,0.00,,,0.00,weatherlink.com 1.10,2013-01-07 12:14:00,
2013-01-07 07:29:00,30.9,27.0,30.15,WNW,285,1.0,2.0,84,0.00,,,0.00,weatherlink.com 1.10,2013-01-07 12:29:00,
2013-01-07 07:44:00,31.4,27.0,30.16,NW,308,0.0,1.0,84,0.00,,,0.00,weatherlink.com 1.10,2013-01-07 12:44:00,
2013-01-07 07:59:00,32.1,28.0,30.16,NW,307,0.0,2.0,83,0.00,,,0.00,weatherlink.com 1.10,2013-01-07 12:59:00,
2013-01-07 08:14:00,32.5,28.0,30.18,NW,308,0.0,2.0,82,0.00,,,0.00,weatherlink.com 1.10,2013-01-07 13:14:00,
2013-01-07 08:29:00,33.3,28.0,30.19,NW,321,1.0,1.0,81,0.00,,,0.00,weatherlink.com 1.10,2013-01-07 13:29:00,
2013-01-07 08:44:00,33.9,28.0,30.21,WNW,295,0.0,3.0,80,0.00,,,0.00,weatherlink.com 1.10,2013-01-07 13:44:00,
2013-01-07 08:59:00,34.7,29.0,30.21,NNW,339,1.0,4.0,79,0.00,,,0.00,weatherlink.com 1.10,2013-01-07 13:59:00,
2013-01-07 09:14:00,36.1,29.0,30.23,North,11,1.0,8.0,76,0.00,,,0.00,weatherlink.com 1.10,2013-01-07 14:14:00,
2013-01-07 09:29:00,37.0,27.0,30.24,NW,309,4.0,12.0,68,0.00,,,0.00,weatherlink.com 1.10,2013-01-07 14:29:00,
2013-01-07 09:44:00,37.3,27.0,30.25,NW,307,4.0,12.0,66,0.00,,,0.00,weatherlink.com 1.10,2013-01-07 14:44:00,
2013-01-07 09:59:00,37.8,27.0,30.25,WNW,283,7.0,11.0,65,0.00,,,0.00,weatherlink.com 1.10,2013-01-07 14:59:00,
2013-01-07 10:15:00,38.2,25.0,30.26,North,10,8.0,13.0,60,0.00,,,0.00,weatherlink.com 1.10,2013-01-07 15:15:00,
2013-01-07 10:30:00,38.3,24.0,30.26,NW,309,9.0,14.0,57,0.00,,,0.00,weatherlink.com 1.10,2013-01-07 15:30:00,
2013-01-07 10:45:00,38.1,23.0,30.26,North,355,6.0,18.0,55,0.00,,,0.00,weatherlink.com 1.10,2013-01-07 15:45:00,
2013-01-07 11:00:00,38.0,22.0,30.27,NW,316,6.0,16.0,53,0.00,,,0.00,weatherlink.com 1.10,2013-01-07 16:00:00,
2013-01-07 11:15:00,38.4,22.0,30.27,NW,307,6.0,13.0,53,0.00,,,0.00,weatherlink.com 1.10,2013-01-07 16:15:00,
2013-01-07 11:30:00,38.4,22.0,30.27,North,354,9.0,14.0,53,0.00,,,0.00,weatherlink.com 1.10,2013-01-07 16:30:00,
2013-01-07 11:45:00,38.7,23.0,30.27,West,280,5.0,11.0,53,0.00,,,0.00,weatherlink.com 1.10,2013-01-07 16:45:00,
2013-01-07 12:00:00,38.5,22.0,30.27,NW,315,4.0,14.0,52,0.00,,,0.00,weatherlink.com 1.10,2013-01-07 17:00:00,
2013-01-07 12:15:00,38.5,22.0,30.28,WNW,298,9.0,15.0,51,0.00,,,0.00,weatherlink.com 1.10,2013-01-07 17:15:00,
2013-01-07 12:30:00,39.1,22.0,30.28,NNW,331,4.0,13.0,50,0.00,,,0.00,weatherlink.com 1.10,2013-01-07 17:30:00,
2013-01-07 12:45:00,39.0,22.0,30.29,WNW,303,10.0,12.0,51,0.00,,,0.00,weatherlink.com 1.10,2013-01-07 17:45:00,
2013-01-07 13:00:00,38.9,22.0,30.29,WNW,295,8.0,12.0,50,0.00,,,0.00,weatherlink.com 1.10,2013-01-07 18:00:00,
2013-01-07 13:15:00,38.7,21.0,30.29,WNW,298,5.0,11.0,49,0.00,,,0.00,weatherlink.com 1.10,2013-01-07 18:15:00,
2013-01-07 13:30:00,39.2,21.0,30.30,NW,311,6.0,10.0,49,0.00,,,0.00,weatherlink.com 1.10,2013-01-07 18:30:00,
2013-01-07 13:45:00,39.2,21.0,30.30,WNW,295,3.0,8.0,49,0.00,,,0.00,weatherlink.com 1.10,2013-01-07 18:45:00,
2013-01-07 14:00:00,38.9,21.0,30.32,NW,309,6.0,10.0,49,0.00,,,0.00,weatherlink.com 1.10,2013-01-07 19:00:00,
2013-01-07 14:15:00,39.3,21.0,30.32,WNW,303,3.0,8.0,48,0.00,,,0.00,weatherlink.com 1.10,2013-01-07 19:15:00,
2013-01-07 14:30:00,39.6,21.0,30.33,NNW,346,6.0,6.0,47,0.00,,,0.00,weatherlink.com 1.10,2013-01-07 19:30:00,
2013-01-07 14:45:00,39.1,20.0,30.33,WNW,302,5.0,8.0,46,0.00,,,0.00,weatherlink.com 1.10,2013-01-07 19:45:00,
2013-01-07 15:00:00,39.2,18.0,30.34,WSW,252,5.0,6.0,43,0.00,,,0.00,weatherlink.com 1.10,2013-01-07 20:00:00,
2013-01-07 15:15:00,39.0,19.0,30.35,NW,316,6.0,8.0,44,0.00,,,0.00,weatherlink.com 1.10,2013-01-07 20:15:00,
2013-01-07 15:30:00,38.5,18.0,30.35,NW,309,5.0,9.0,43,0.00,,,0.00,weatherlink.com 1.10,2013-01-07 20:30:00,
2013-01-07 15:45:00,38.2,17.0,30.36,WNW,298,2.0,9.0,42,0.00,,,0.00,weatherlink.com 1.10,2013-01-07 20:45:00,
2013-01-07 16:00:00,38.0,17.0,30.36,West,278,1.0,5.0,42,0.00,,,0.00,weatherlink.com 1.10,2013-01-07 21:00:00,
2013-01-07 16:15:00,37.4,17.0,30.37,NW,318,2.0,5.0,44,0.00,,,0.00,weatherlink.com 1.10,2013-01-07 21:15:00,
2013-01-07 16:30:00,36.4,17.0,30.36,NNW,338,3.0,3.0,45,0.00,,,0.00,weatherlink.com 1.10,2013-01-07 21:30:00,
2013-01-07 16:45:00,35.7,16.0,30.37,NNE,12,2.0,3.0,45,0.00,,,0.00,weatherlink.com 1.10,2013-01-07 21:45:00,
2013-01-07 17:00:00,34.9,16.0,30.38,NW,314,0.0,2.0,47,0.00,,,0.00,weatherlink.com 1.10,2013-01-07 22:00:00,
2013-01-07 17:15:00,34.5,16.0,30.39,NW,314,1.0,2.0,47,0.00,,,0.00,weatherlink.com 1.10,2013-01-07 22:15:00,
2013-01-07 17:30:00,33.2,17.0,30.40,NW,313,0.0,0.0,51,0.00,,,0.00,weatherlink.com 1.10,2013-01-07 22:30:00,
2013-01-07 17:45:00,31.7,17.0,30.40,NW,314,0.0,1.0,56,0.00,,,0.00,weatherlink.com 1.10,2013-01-07 22:45:00,
2013-01-07 18:00:00,31.9,17.0,30.40,NE,34,0.0,1.0,54,0.00,,,0.00,weatherlink.com 1.10,2013-01-07 23:00:00,
2013-01-07 18:15:00,30.6,17.0,30.40,NNE,32,1.0,1.0,58,0.00,,,0.00,weatherlink.com 1.10,2013-01-07 23:15:00,
2013-01-07 18:30:00,29.2,18.0,30.40,SE,128,0.0,1.0,64,0.00,,,0.00,weatherlink.com 1.10,2013-01-07 23:30:00,
2013-01-07 18:45:00,28.8,17.0,30.41,SE,128,0.0,1.0,61,0.00,,,0.00,weatherlink.com 1.10,2013-01-07 23:45:00,
2013-01-07 19:00:00,27.4,18.0,30.41,SE,138,0.0,1.0,68,0.00,,,0.00,weatherlink.com 1.10,2013-01-08 00:00:00,
2013-01-07 19:15:00,26.9,18.0,30.41,SE,138,0.0,0.0,69,0.00,,,0.00,weatherlink.com 1.10,2013-01-08 00:15:00,
2013-01-07 19:31:00,27.9,17.0,30.41,East,81,0.0,3.0,64,0.00,,,0.00,weatherlink.com 1.10,2013-01-08 00:31:00,
2013-01-07 19:46:00,26.4,19.0,30.41,East,82,0.0,0.0,72,0.00,,,0.00,weatherlink.com 1.10,2013-01-08 00:46:00,
2013-01-07 20:01:00,25.8,18.0,30.41,East,82,0.0,1.0,73,0.00,,,0.00,weatherlink.com 1.10,2013-01-08 01:01:00,
2013-01-07 20:16:00,26.2,18.0,30.41,East,82,0.0,0.0,71,0.00,,,0.00,weatherlink.com 1.10,2013-01-08 01:16:00,
2013-01-07 20:31:00,26.3,18.0,30.41,East,82,0.0,1.0,71,0.00,,,0.00,weatherlink.com 1.10,2013-01-08 01:31:00,
2013-01-07 20:46:00,26.2,19.0,30.41,East,82,1.0,1.0,74,0.00,,,0.00,weatherlink.com 1.10,2013-01-08 01:46:00,
2013-01-07 21:01:00,26.8,20.0,30.40,East,82,1.0,1.0,75,0.00,,,0.00,weatherlink.com 1.10,2013-01-08 02:01:00,
2013-01-07 21:16:00,27.8,21.0,30.40,East,83,1.0,3.0,77,0.00,,,0.00,weatherlink.com 1.10,2013-01-08 02:16:00,
2013-01-07 21:31:00,25.4,19.0,30.41,ESE,104,0.0,1.0,77,0.00,,,0.00,weatherlink.com 1.10,2013-01-08 02:31:00,
2013-01-07 21:46:00,23.8,19.0,30.41,ESE,104,0.0,1.0,80,0.00,,,0.00,weatherlink.com 1.10,2013-01-08 02:46:00,
2013-01-07 22:01:00,25.2,21.0,30.40,East,94,0.0,1.0,84,0.00,,,0.00,weatherlink.com 1.10,2013-01-08 03:01:00,
2013-01-07 22:16:00,24.6,20.0,30.41,East,91,0.0,1.0,84,0.00,,,0.00,weatherlink.com 1.10,2013-01-08 03:16:00,
2013-01-07 22:31:00,24.6,21.0,30.40,East,89,0.0,1.0,86,0.00,,,0.00,weatherlink.com 1.10,2013-01-08 03:31:00,
2013-01-07 22:46:00,24.9,21.0,30.40,East,86,1.0,1.0,84,0.00,,,0.00,weatherlink.com 1.10,2013-01-08 03:46:00,
2013-01-07 23:01:00,24.9,21.0,30.40,East,86,1.0,1.0,86,0.00,,,0.00,weatherlink.com 1.10,2013-01-08 04:01:00,
2013-01-07 23:16:00,25.5,21.0,30.39,East,92,0.0,1.0,83,0.00,,,0.00,weatherlink.com 1.10,2013-01-08 04:16:00,
2013-01-07 23:31:00,24.3,20.0,30.39,SSE,147,0.0,1.0,84,0.00,,,0.00,weatherlink.com 1.10,2013-01-08 04:31:00,
2013-01-07 23:46:00,22.6,19.0,30.39,SE,146,0.0,1.0,86,0.00,,,0.00,weatherlink.com 1.10,2013-01-08 04:46:00,